Details From EGPE - Inverness
To EGPA - Kirkwall
Flight Number -
Tags decoded
Created
Modified
Stats Distance 92 nm / 171 km
Max Altitude 0 ft / 0 m
Waypoints 2
Social Downloads 0
Likes 0
Share VATSIM

Download

Looking for another format? Having issues loading an existing format? Contact us
Advertisement - Login to hide

Notes

Requested: EGPE EGPA

Route

EGPE EGPA

ID Type Via Altitude Latitude Longitude Leg Dist Tot Dist Heading (true) Name
O EGPE APT - 0 ft / 0 m 57.54304˚ -4.05094˚ - 0 nm - Inverness
O EGPA APT - 0 ft / 0 m 58.95808˚ -2.90302˚ 92 nm 92 nm 23° / 24° Kirkwall

Altitude Profile

Advertisement - Login to hide

EGPE

Details ICAO EGPE (INV)
Name Inverness
Region United Kingdom
Timezone Europe/London (UTC+0.0)
Stats Elevation 31 ft / 9 m (AMSL)
Location 57.543039° -4.050944°
Runways 2
Magnetic Variation 2.883° W

METAR

EGPE 111920Z 27006KT 240V300 9999 FEW033 SCT040 02/00 Q0999

Decode

TAF

Not found

Departure Runways

ID Width Length Bearing (true) Bearing (mag) Surface Threshold Offset Overrun Length
05 151 ft / 46 m 6,179 ft / 1,883 m 49.39° 52.27° Asphalt 220 ft / 67 m 0 ft / 0 m
12 59 ft / 18 m 2,299 ft / 701 m 109.63° 112.51° Asphalt 0 ft / 0 m 0 ft / 0 m
23 151 ft / 46 m 6,179 ft / 1,883 m 229.41° 232.29° Asphalt 0 ft / 0 m 0 ft / 0 m
30 59 ft / 18 m 2,299 ft / 701 m 289.64° 292.52° Asphalt 0 ft / 0 m 0 ft / 0 m

EGPA

Details ICAO EGPA (KOI)
Name Kirkwall
Region United Kingdom
Timezone Europe/London (UTC+0.0)
Stats Elevation 51 ft / 16 m (AMSL)
Location 58.958083° -2.903015°
Runways 2
Magnetic Variation 2.634° W

METAR

EGPA 111920Z 29004KT 230V010 9999 VCSH FEW015CB FEW028 02/00 Q0996

Decode

TAF

Not found

Destination Runways

ID Width Length Bearing (true) Bearing (mag) Surface Threshold Offset Overrun Length
09 151 ft / 46 m 4,748 ft / 1,447 m 87.41° 90.04° Asphalt 551 ft / 168 m 0 ft / 0 m
15 59 ft / 18 m 2,224 ft / 678 m 140.44° 143.07° Asphalt 0 ft / 0 m 0 ft / 0 m
27 151 ft / 46 m 4,748 ft / 1,447 m 267.43° 270.06° Asphalt 135 ft / 41 m 0 ft / 0 m
33 59 ft / 18 m 2,224 ft / 678 m 320.44° 323.07° Asphalt 397 ft / 121 m 0 ft / 0 m

Approach Navaids

Runway Type Ident Frequency Range Bearing (true) Bearing (mag) Slope Elevation
09 Localiser IORK 110.10 MHz 18 nm / 33 km 87.42° 90.05° - 38 ft / 12 m (AMSL)
09 Glidescope IORK 110.10 MHz 10 nm / 19 km 87.42° 90.05° 3.50° 38 ft / 12 m (AMSL)
09 DME IORK 109.80 MHz 18 nm / 33 km - - - 38 ft / 12 m (AMSL)
27 Localiser IKIR 110.10 MHz 18 nm / 33 km 267.39° 270.02° - 38 ft / 12 m (AMSL)
27 Glidescope IKIR 110.10 MHz 10 nm / 19 km 267.42° 270.05° 3.50° 38 ft / 12 m (AMSL)
27 DME IKIR 109.80 MHz 18 nm / 33 km - - - 38 ft / 12 m (AMSL)

Popular Alternatives